Date,TemperatureHighF,TemperatureAvgF,TemperatureLowF,DewpointHighF,DewpointAvgF,DewpointLowF,HumidityHigh,HumidityAvg,HumidityLow,PressureMaxIn,PressureMinIn,WindSpeedMaxMPH,WindSpeedAvgMPH,GustSpeedMaxMPH,PrecipitationSumIn
2013-1-1,34.9,33.1,29.8,32.6,31.2,26.1,96,92,86,30.18,30.06,11,2,11,0.09
2013-1-2,30.9,25.9,19.6,26.8,22.3,17.3,93,86,71,30.29,30.16,9,1,9,0.00
2013-1-3,38.1,25.0,15.6,26.2,19.7,13.9,94,82,51,30.44,30.26,13,1,13,0.00
2013-1-4,37.7,28.5,21.9,27.4,23.5,20.1,94,82,62,30.47,30.39,13,1,13,0.00
2013-1-5,44.4,31.8,18.9,31.6,25.7,17.2,95,79,55,30.42,30.23,9,0,9,0.00
2013-1-6,40.3,34.7,22.5,34.3,28.4,18.7,86,78,71,30.41,30.13,12,2,17,0.00
2013-1-7,41.5,27.2,15.4,27.6,21.4,13.5,94,80,55,30.50,30.26,6,1,6,0.00
2013-1-8,53.3,35.7,20.5,36.6,28.9,18.4,95,78,52,30.36,30.24,9,0,9,0.00
2013-1-9,55.8,46.1,35.2,46.8,40.7,31.9,94,82,68,30.50,30.25,8,0,8,0.00
2013-1-10,59.7,47.0,42.1,55.5,43.7,35.4,97,88,72,30.49,30.01,14,2,14,0.30
2013-1-11,66.3,57.8,50.5,57.3,52.4,48.4,96,83,57,30.02,29.86,24,2,24,0.90
2013-1-12,66.2,62.1,54.4,63.3,60.0,51.8,96,93,85,30.01,29.78,11,2,11,0.02
2013-1-13,66.0,50.6,30.4,60.5,48.5,28.3,97,93,80,30.20,29.76,18,3,18,2.74
2013-1-14,30.5,27.3,23.5,28.3,23.1,19.8,92,84,74,30.47,30.20,13,4,13,0.00
2013-1-15,30.9,26.6,22.6,28.3,23.2,20.0,94,87,80,30.35,30.08,15,5,15,0.00
2013-1-16,31.5,30.1,29.3,29.4,28.4,27.5,95,93,90,30.17,30.03,7,1,7,0.00
2013-1-17,44.0,33.6,27.1,33.6,28.1,23.5,95,81,58,30.44,30.14,18,3,18,0.01
2013-1-18,43.3,31.5,20.3,27.9,23.9,18.2,93,75,52,30.57,30.33,8,1,8,0.00
2013-1-19,54.2,44.7,34.4,32.5,29.1,26.1,74,55,38,30.33,30.03,16,3,16,0.00
2013-1-20,43.5,37.8,24.6,33.4,22.1,10.6,80,55,28,30.27,30.06,22,2,22,0.00
2013-1-21,28.6,23.1,17.9,17.7,14.1,1.3,79,69,33,30.33,30.18,23,2,23,0.00
2013-1-27,43.1,41.8,41.0,40.1,39.2,38.7,92,90,89,30.23,30.19,4,1,8,0.00
2013-1-28,55.1,49.7,42.0,51.3,46.0,39.3,93,87,78,30.20,30.09,9,2,13,0.12
2013-1-29,64.3,57.5,52.6,59.2,53.7,49.5,93,87,83,30.10,29.57,20,2,20,0.00
2013-1-30,68.3,51.1,31.2,61.0,47.1,24.6,96,86,76,29.75,29.35,26,5,26,1.40
2013-1-31,35.7,28.9,18.0,28.5,21.7,11.1,92,74,59,30.18,29.75,28,6,28,0.00
2013-2-1,22.1,13.0,6.3,11.9,5.5,0.1,85,72,58,30.54,30.18,21,2,21,0.00
2013-2-2,37.2,27.8,16.8,28.6,20.9,12.0,89,76,59,30.40,30.06,7,1,14,337.93
2013-2-3,31.5,28.2,19.8,27.8,23.7,16.5,93,83,71,30.20,30.00,16,2,16,0.00
2013-2-4,48.9,33.5,16.3,40.8,27.8,14.3,94,81,51,30.20,29.87,14,2,14,0.14
2013-2-5,51.4,41.9,35.0,38.9,35.8,31.0,95,80,54,30.06,29.90,11,1,12,0.00
2013-2-6,46.1,35.8,24.3,35.5,30.2,22.7,95,81,59,30.27,29.99,8,1,8,0.00
2013-2-7,65.9,41.5,33.5,43.5,33.5,30.0,88,75,41,30.22,29.86,12,1,12,0.00
2013-2-8,49.4,37.7,30.5,46.5,33.2,25.6,94,84,76,30.36,29.85,16,4,17,0.16
2013-2-9,46.2,36.2,25.4,27.6,25.7,21.6,87,67,45,30.42,30.18,12,2,12,0.00
2013-2-10,58.0,49.4,37.1,50.5,41.1,25.4,96,75,47,30.18,29.81,19,3,19,0.24
2013-2-11,53.8,46.6,32.5,51.5,35.3,24.0,95,66,39,30.13,29.84,19,3,19,0.01
2013-2-12,49.2,37.5,24.6,32.5,27.7,22.4,92,69,42,30.19,29.90,10,0,10,0.00
2013-2-13,39.3,35.1,28.5,34.9,30.1,26.6,94,82,66,29.98,29.78,15,2,15,0.05
2013-2-14,56.4,41.6,30.2,39.3,34.0,28.7,95,77,46,30.02,29.91,17,1,17,0.01
2013-2-15,42.8,36.3,25.2,34.5,28.6,18.9,88,74,51,30.20,30.01,16,2,16,0.00
2013-2-16,32.5,24.6,16.0,21.5,14.5,8.4,92,68,38,30.21,30.12,15,3,17,0.00
2013-2-17,39.6,25.5,12.9,18.0,14.2,9.5,90,64,38,30.31,30.19,10,1,10,0.00
2013-2-18,61.3,45.4,30.4,41.2,29.6,16.8,87,55,35,30.21,29.78,19,3,19,0.14
2013-2-19,44.5,35.1,23.7,41.7,26.5,14.3,93,72,43,30.23,29.75,20,5,20,0.20
2013-2-20,30.4,24.1,15.8,17.1,14.3,10.8,82,66,54,30.37,30.23,15,2,15,0.00
2013-2-21,36.8,27.4,18.0,29.5,19.4,13.1,92,73,50,30.35,29.99,22,4,22,0.03
2013-2-22,49.2,39.4,31.6,41.8,36.0,29.8,96,88,73,30.03,29.89,8,2,9,0.03
2013-2-23,44.6,35.1,27.8,33.4,25.8,21.8,94,70,46,30.05,29.94,11,2,11,0.00
2013-2-24,48.3,32.9,19.6,26.9,23.1,17.5,93,70,40,30.18,30.00,7,1,7,0.00
2013-2-25,51.2,38.5,26.3,28.4,25.3,22.0,84,61,39,30.12,29.76,20,5,20,0.00
2013-2-26,49.7,42.4,36.8,48.2,37.4,25.1,96,84,49,29.76,29.38,20,4,20,0.89
2013-2-27,37.7,35.1,31.6,35.8,32.5,29.0,95,90,82,29.84,29.61,14,2,14,0.08
2013-2-28,34.6,32.4,30.8,31.6,29.8,27.7,94,90,87,30.04,29.82,13,2,13,0.05
2013-3-1,36.3,33.0,30.9,33.3,31.0,29.4,95,92,84,30.06,29.99,12,2,12,0.09
2013-3-2,31.3,29.4,27.7,29.7,24.6,20.7,95,82,71,30.15,30.03,14,4,14,0.00
2013-3-3,37.0,29.0,21.2,24.3,20.3,15.0,89,71,47,30.17,30.10,14,2,14,0.00
2013-3-4,43.9,32.2,16.8,27.5,20.4,13.6,90,64,45,30.18,29.94,14,2,14,0.00
2013-3-5,47.0,39.2,27.9,45.7,35.7,25.4,95,88,58,29.94,29.62,18,3,20,0.39
2013-3-6,31.8,29.9,28.0,28.6,27.0,25.4,92,89,85,30.34,29.86,20,5,20,0.00
2013-3-7,35.7,32.1,28.9,30.3,27.4,25.6,92,83,74,30.43,30.32,7,2,7,0.01
2013-3-8,49.4,36.2,23.3,30.0,26.6,21.5,94,70,43,30.48,30.35,17,2,17,0.00
2013-3-9,60.8,47.2,33.3,36.1,31.6,27.2,81,57,36,30.35,30.05,12,2,12,0.00
2013-3-10,70.6,58.7,49.4,47.4,36.7,33.7,87,45,29,30.05,29.78,16,3,16,0.05
2013-3-11,54.0,46.1,36.4,52.5,42.9,31.4,96,89,75,29.95,29.69,16,2,16,1.60
2013-3-12,48.4,38.8,33.2,33.0,29.0,25.0,83,69,47,30.14,29.94,16,3,16,0.00
2013-3-13,37.7,31.4,24.1,31.3,21.7,16.1,87,67,50,30.42,30.11,20,5,20,0.00
2013-3-14,46.6,25.6,16.9,31.3,19.0,14.7,92,78,36,30.45,30.25,11,0,11,0.00
2013-3-15,67.2,47.6,31.3,47.4,36.9,28.3,90,69,42,30.25,29.79,11,1,11,0.01
2013-3-16,69.3,59.4,45.2,51.7,47.1,39.2,80,64,50,29.97,29.69,19,4,19,0.00
2013-3-17,45.0,37.7,34.8,39.3,35.5,33.1,94,92,80,30.07,29.89,18,5,18,0.77
2013-3-18,51.5,43.7,35.1,50.7,41.4,33.1,97,92,78,29.93,29.64,22,4,22,1.35
2013-3-19,46.9,37.6,29.9,33.5,23.3,13.5,94,61,28,30.19,29.92,20,3,20,0.00
2013-3-20,42.9,31.3,22.7,25.9,18.5,10.7,86,61,36,30.19,30.05,20,4,20,0.00
2013-3-21,34.7,24.8,17.0,15.8,12.6,10.3,77,60,41,30.11,30.03,16,2,16,0.00
2013-3-22,38.7,23.6,16.2,21.4,14.8,12.3,90,72,39,30.13,30.04,11,0,11,0.00
2013-3-23,53.9,43.1,35.3,31.7,24.1,17.2,58,47,31,30.06,29.81,13,2,13,0.00
2013-3-24,46.2,37.7,33.1,37.8,33.2,25.8,95,86,46,29.82,29.40,19,4,19,0.71
2013-3-25,34.0,31.1,29.3,30.1,28.5,26.9,94,90,80,30.07,29.53,22,5,22,0.01
2013-3-26,39.3,33.9,30.6,30.2,28.4,24.7,93,81,58,30.33,30.07,14,4,14,0.01
2013-3-27,44.1,34.5,23.4,28.3,24.5,20.8,91,68,46,30.40,30.32,13,2,13,0.00
2013-3-28,52.4,35.9,20.8,28.7,24.2,19.1,94,66,35,30.42,30.31,12,1,12,0.00
2013-3-29,51.9,40.1,27.7,43.5,34.5,24.0,94,81,65,30.34,30.23,8,0,8,0.00
2013-3-30,59.1,43.8,28.0,46.0,36.7,26.8,97,79,50,30.26,29.95,14,1,14,0.03
2013-3-31,60.9,50.3,43.5,49.8,45.5,40.4,96,85,55,29.95,29.83,12,1,12,0.14
2013-4-1,51.1,44.5,34.9,43.0,31.5,19.8,95,63,32,30.17,29.86,16,3,16,0.00
2013-4-2,49.7,37.8,23.5,26.8,19.5,11.9,86,51,24,30.31,30.16,14,2,14,0.00
2013-4-3,49.9,38.7,23.3,24.6,19.0,16.0,83,48,27,30.40,30.27,19,3,19,0.00
2013-4-4,50.9,43.6,37.1,32.2,22.8,16.8,67,44,37,30.28,30.02,11,2,12,0.00
2013-4-5,66.1,48.0,26.7,34.9,30.1,25.0,94,57,27,30.13,30.01,15,2,15,0.00
2013-4-6,73.7,57.0,39.8,40.2,34.3,28.3,69,44,25,30.15,29.92,16,1,16,0.00
2013-4-7,74.0,64.2,57.6,54.1,46.0,38.8,64,52,43,29.99,29.90,14,2,15,0.00
2013-4-8,74.3,63.8,53.8,57.5,51.4,45.4,81,64,52,29.97,29.87,16,2,16,0.00
2013-4-9,81.8,68.8,56.2,61.6,57.1,50.8,84,67,46,30.07,29.93,18,2,18,0.00
2013-4-10,84.1,72.4,61.1,64.2,59.6,55.6,86,66,47,29.97,29.75,12,2,14,0.00
2013-4-11,70.3,66.0,52.2,61.2,57.7,50.7,96,76,62,29.77,29.51,12,1,12,1.32
2013-4-12,53.9,46.2,34.7,50.7,38.0,32.3,95,74,54,29.98,29.60,16,3,16,0.10
2013-4-13,61.3,46.3,30.1,39.4,34.9,28.3,94,68,40,30.09,29.98,21,2,21,0.00
2013-4-14,74.5,56.2,38.5,48.8,41.9,35.6,91,63,33,30.04,29.84,14,1,14,0.00
2013-4-15,72.2,62.9,55.6,57.4,52.8,48.8,81,70,56,29.99,29.89,13,2,13,0.00
2013-4-16,81.8,70.4,61.5,67.7,61.6,53.9,86,74,59,30.10,29.93,16,1,16,0.03
2013-4-17,78.5,68.0,60.7,69.9,63.6,59.0,96,86,73,30.11,29.91,17,1,17,0.43
2013-4-18,83.4,72.6,61.1,65.2,59.1,54.9,91,65,40,29.91,29.59,18,2,18,0.00
2013-4-19,72.2,45.4,36.2,61.0,38.2,31.5,93,77,59,30.07,29.48,19,3,19,1.30
2013-4-20,55.6,43.7,30.8,35.8,30.9,26.5,94,64,34,30.37,30.07,16,2,16,0.00
2013-4-21,60.4,48.3,36.2,33.8,30.4,27.5,75,52,31,30.48,30.31,16,4,16,0.00
2013-4-22,72.0,56.2,38.1,46.5,38.8,30.6,80,54,32,30.33,30.10,11,1,11,0.00
2013-4-23,71.0,59.5,45.1,53.7,48.3,40.8,89,68,52,30.12,29.87,14,1,14,0.00
2013-4-24,64.2,49.4,33.9,55.9,44.2,32.4,94,83,66,30.28,29.81,21,3,21,0.98
2013-4-25,61.7,45.7,28.9,41.3,35.5,27.9,96,71,40,30.39,30.27,15,2,15,0.00
2013-4-26,61.9,51.4,34.2,42.7,35.8,31.5,93,58,33,30.45,30.32,15,1,15,0.00
2013-4-27,56.3,53.3,49.1,53.3,48.7,41.0,95,85,73,30.34,29.94,22,1,22,0.53
2013-4-28,65.8,57.6,53.8,59.6,54.2,51.7,96,89,75,29.94,29.86,19,2,19,0.12
2013-4-29,68.0,58.7,52.6,55.2,52.4,50.3,95,81,58,30.03,29.93,9,0,9,0.00
2013-4-30,80.7,63.6,45.0,58.3,51.9,43.6,96,70,37,30.03,29.93,10,1,10,0.00
2013-5-1,82.0,67.6,49.9,61.3,55.5,48.2,95,69,41,30.14,30.02,9,1,9,0.00
2013-5-2,75.5,68.1,59.4,58.7,55.6,51.4,85,65,48,30.16,30.04,11,1,11,0.00
2013-5-3,75.0,66.4,59.1,58.6,56.9,54.4,91,73,50,30.04,29.85,17,2,17,0.01
2013-5-4,62.3,55.2,50.8,55.6,50.3,48.2,96,84,66,29.97,29.86,11,2,11,2.03
2013-5-5,55.1,52.1,49.5,52.1,50.1,47.7,96,93,88,29.95,29.85,17,4,17,0.51
2013-5-6,66.6,56.4,49.9,55.0,51.7,48.2,96,85,60,29.92,29.79,13,3,13,0.11
2013-5-7,72.7,60.3,50.4,58.0,53.9,49.0,97,81,48,29.98,29.90,10,1,10,0.07
2013-5-8,77.4,64.5,51.7,59.6,55.4,50.6,97,75,47,30.01,29.92,12,1,12,0.00
2013-5-9,81.0,71.8,54.1,64.0,59.2,52.6,96,67,44,30.04,29.93,10,1,10,0.00
2013-5-10,65.7,63.0,60.2,63.2,60.2,57.0,96,91,80,29.95,29.83,12,0,12,1.23
2013-5-11,64.5,57.6,52.5,60.2,52.5,38.9,96,84,57,30.04,29.85,18,2,18,0.21
2013-5-12,58.1,49.9,37.9,39.5,34.6,29.0,87,58,35,30.17,30.04,18,2,18,0.00
2013-5-13,64.9,50.6,33.2,43.0,36.2,30.7,96,63,32,30.25,30.14,14,2,14,0.00
2013-5-14,83.4,63.4,40.4,61.3,49.1,37.3,91,62,44,30.18,29.87,13,1,13,0.00
2013-5-15,86.0,69.3,62.1,61.7,57.2,49.1,82,68,35,30.00,29.87,13,1,13,0.00
2013-5-16,78.3,69.2,61.5,64.7,58.6,48.8,92,70,53,29.96,29.89,14,1,14,0.00
2013-5-17,74.3,66.3,60.0,65.8,62.5,58.8,97,88,71,30.04,29.95,7,0,7,0.06
2013-5-18,79.6,69.4,63.5,68.5,64.4,61.5,95,85,66,30.01,29.93,4,0,6,0.00
2013-5-19,86.1,73.2,60.6,73.9,67.4,59.7,97,83,60,29.99,29.86,11,0,11,0.01
2013-5-20,85.7,74.1,62.8,72.4,66.9,61.2,95,79,58,29.99,29.86,6,1,9,0.00
2013-5-21,84.3,72.3,66.3,69.4,65.4,62.5,94,80,53,29.93,29.80,12,1,12,0.00
2013-5-22,78.9,68.6,62.0,67.5,63.4,60.2,96,84,65,29.83,29.75,11,1,11,0.17
2013-5-23,70.1,63.3,55.0,61.5,57.7,49.3,97,83,63,30.08,29.82,18,2,18,0.02
2013-5-24,67.8,57.2,47.4,49.5,45.5,37.9,89,67,36,30.32,30.08,16,4,16,0.00
2013-5-25,73.3,58.8,40.5,51.5,44.3,37.3,96,63,31,30.36,30.18,12,1,12,0.00
2013-5-26,78.8,64.3,54.0,56.5,51.9,46.1,87,66,43,30.27,30.13,10,1,10,0.01
2013-5-27,85.2,72.3,55.3,62.4,57.6,51.8,89,62,37,30.15,29.95,14,1,14,0.00
2013-5-28,86.8,76.0,65.1,65.0,60.8,57.9,80,61,41,30.03,29.93,15,1,15,0.00
2013-5-29,88.7,75.7,62.1,68.4,63.4,58.5,91,67,45,30.08,29.96,9,1,9,0.00
2013-5-30,87.6,77.1,68.3,71.1,66.2,61.4,83,70,55,30.10,29.97,14,1,14,0.00
2013-5-31,80.8,74.5,69.5,72.1,67.4,63.4,89,79,71,30.02,29.90,13,1,13,0.01
2013-6-1,77.3,69.8,62.8,68.4,65.2,60.4,95,86,73,29.95,29.76,19,0,19,0.17
2013-6-2,78.1,69.2,60.6,64.6,61.9,57.8,95,79,55,29.93,29.86,13,1,13,0.00
2013-6-3,72.8,64.8,56.8,58.6,56.2,52.0,96,75,53,30.04,29.92,12,2,12,0.00
2013-6-4,78.0,64.5,48.8,60.7,55.3,47.6,96,74,51,30.10,30.00,15,2,15,0.00
2013-6-5,84.4,70.9,58.8,67.2,61.1,54.4,91,73,48,30.02,29.82,11,1,11,0.00
2013-6-6,77.9,70.1,63.8,68.9,66.3,62.2,96,88,69,29.83,29.74,6,0,9,0.33
2013-6-7,78.0,68.1,60.7,65.6,61.9,59.5,97,82,58,29.86,29.75,9,1,9,0.02
2013-6-8,82.6,70.7,59.9,67.8,62.4,58.5,96,77,48,30.00,29.83,11,0,11,0.00
2013-6-9,80.7,73.5,58.6,69.3,65.7,56.9,95,77,58,30.02,29.86,13,1,13,1.05
2013-6-10,76.4,68.2,62.9,69.0,64.8,61.5,97,89,72,29.91,29.79,10,0,10,0.63
2013-6-11,86.5,73.0,58.2,70.0,64.9,57.3,97,78,53,30.00,29.90,9,0,9,0.01
2013-6-12,91.7,81.9,71.0,77.8,73.0,67.3,94,76,57,29.96,29.76,14,1,14,0.00
2013-6-13,81.5,78.6,68.4,72.9,69.7,53.9,80,74,55,29.93,29.68,22,3,22,0.00
2013-6-14,82.2,68.7,53.1,61.6,56.3,50.5,94,67,41,30.04,29.91,11,1,11,0.00
2013-6-15,86.7,73.2,57.5,66.7,61.9,56.1,96,71,46,30.09,29.96,8,0,8,0.00
2013-6-16,85.8,72.8,66.4,71.5,66.8,62.8,96,83,57,30.03,29.93,24,0,24,0.16
2013-6-17,87.0,70.6,64.7,75.8,67.2,62.3,97,90,63,29.97,29.86,17,1,17,0.51
2013-6-18,85.8,72.1,63.3,70.3,64.2,59.8,96,78,55,29.94,29.84,20,1,20,0.17
2013-6-19,82.3,71.8,60.9,67.5,63.2,59.4,96,76,51,30.07,29.94,12,1,12,0.00
2013-6-20,86.3,74.1,61.4,67.5,62.9,59.3,94,71,44,30.16,30.07,11,1,11,0.00
2013-6-21,89.3,76.5,61.9,73.9,67.5,60.5,96,76,53,30.18,30.08,8,0,8,0.00
2013-6-22,90.1,77.6,64.4,73.9,68.7,62.9,96,76,50,30.16,30.04,8,0,8,0.00
2013-6-23,89.3,77.5,65.7,72.3,67.4,64.3,96,74,47,30.12,30.02,9,0,9,0.00
2013-6-24,77.2,71.5,66.9,71.6,68.2,64.3,96,89,78,30.14,30.04,11,0,11,0.26
2013-6-25,91.2,78.5,66.0,77.5,71.8,64.9,98,82,59,30.06,29.90,7,0,7,0.01
2013-6-26,87.8,76.4,65.9,76.0,71.2,64.7,97,85,64,29.98,29.67,25,1,25,1.45
2013-6-27,87.3,75.6,65.9,76.8,71.3,65.0,98,88,65,29.81,29.75,14,1,14,0.00
2013-6-28,86.2,77.0,68.3,70.4,66.7,59.8,95,73,43,29.77,29.61,16,2,16,0.00
2013-6-29,83.2,71.8,61.1,67.2,63.1,58.3,96,75,53,29.67,29.58,17,1,17,0.33
2013-6-30,80.3,67.1,60.3,68.0,63.2,59.4,97,88,58,29.80,29.64,7,0,7,0.06
2013-7-1,78.2,67.5,61.3,67.6,63.8,59.9,97,89,64,29.88,29.76,7,1,7,1.31
2013-7-2,81.7,71.1,62.4,69.4,64.8,61.4,97,82,59,30.01,29.87,8,0,8,0.01
2013-7-3,82.7,70.2,61.0,70.3,65.1,59.9,97,85,60,30.09,30.00,7,0,8,0.22
2013-7-4,69.3,67.4,64.8,68.0,66.1,63.4,97,96,94,30.12,30.04,7,0,7,0.89
2013-7-5,81.5,67.0,63.7,72.6,65.2,62.7,97,94,70,30.11,30.05,6,0,6,0.03
2013-7-7,87.0,79.7,67.4,71.3,68.8,65.5,95,71,55,30.11,30.02,8,1,8,0.00
2013-7-8,90.5,70.8,63.5,75.7,67.0,62.6,98,89,54,30.14,30.03,7,0,8,0.00
2013-7-9,91.0,79.3,69.2,78.5,72.8,67.9,97,82,57,30.09,29.97,8,0,8,0.00
2013-7-10,90.2,75.3,68.3,80.7,72.5,67.1,97,91,69,29.99,29.84,26,0,26,0.20
2013-7-11,82.2,73.3,66.6,71.8,66.7,61.2,98,82,56,29.97,29.91,15,2,15,0.01
2013-7-12,80.5,71.0,60.0,61.9,59.4,56.3,90,68,48,30.06,29.97,17,2,17,0.00
2013-7-13,81.5,69.0,57.5,68.6,62.9,56.4,97,82,57,30.08,30.00,18,2,18,0.01
2013-7-14,88.4,76.4,65.1,75.2,69.5,63.3,95,81,57,30.16,30.06,6,1,8,0.21
2013-7-15,91.5,79.9,69.1,74.8,70.9,67.2,96,76,52,30.26,30.16,8,0,9,0.00
2013-7-16,92.5,80.6,68.1,77.5,72.4,67.0,97,78,55,30.31,30.22,7,0,7,0.00
2013-7-17,92.0,80.5,70.2,77.0,72.9,69.3,97,80,53,30.29,30.15,10,1,10,0.00
2013-7-18,89.8,80.0,71.9,78.9,73.8,69.2,97,82,61,30.19,30.01,13,1,13,0.54
2013-7-19,90.3,79.7,68.8,77.2,72.2,67.2,95,79,60,30.04,29.90,10,1,10,0.00
2013-7-20,91.0,79.8,69.9,76.6,72.4,68.6,97,79,57,29.94,29.83,14,0,14,0.00
2013-7-21,89.0,77.5,69.1,74.9,70.9,67.6,96,81,58,29.95,29.84,8,0,8,0.00
2013-7-22,82.1,73.8,69.0,73.6,70.1,67.2,97,88,69,29.91,29.77,10,1,10,1.29
2013-7-23,89.8,78.1,69.3,77.2,72.9,68.0,97,85,63,29.85,29.72,9,0,9,0.00
2013-7-24,77.9,71.7,64.5,68.5,61.9,56.5,88,72,52,29.94,29.79,13,2,13,0.00
2013-7-25,79.0,69.3,58.2,63.9,59.8,55.7,92,73,51,30.06,29.94,9,2,9,0.00
2013-7-26,83.0,70.3,56.1,66.9,61.8,55.3,97,77,50,30.07,29.97,6,0,6,0.00
2013-7-27,77.7,69.4,63.5,67.8,63.7,57.8,95,83,63,29.98,29.86,7,1,11,0.09
2013-7-28,75.8,64.7,48.8,58.0,53.2,47.3,95,69,46,30.07,29.93,10,1,10,0.00
2013-7-29,81.4,67.4,51.6,64.2,58.2,50.5,97,75,48,30.17,30.07,9,1,9,0.00
2013-7-30,77.0,66.8,59.1,67.7,62.8,57.7,96,88,65,30.19,30.09,9,0,9,0.12
2013-7-31,74.9,68.7,64.4,69.3,65.9,62.6,96,91,81,30.10,29.94,5,1,7,0.00
2013-8-1,83.0,68.4,62.4,68.8,64.0,59.6,98,88,50,30.01,29.94,14,1,15,0.01
2013-8-2,85.3,71.9,57.7,69.1,63.4,56.6,97,77,51,30.03,29.95,7,0,7,0.00
2013-8-3,83.8,77.9,65.6,74.9,70.9,63.4,94,80,70,30.02,29.93,9,1,9,0.01
2013-8-4,78.9,72.9,61.2,67.6,57.6,52.5,97,60,46,30.12,30.02,10,3,14,0.00
2013-8-5,85.0,70.0,53.7,64.7,58.8,52.8,97,71,40,30.10,29.92,8,1,8,0.00
2013-8-6,85.5,74.7,67.6,74.9,69.0,62.6,95,83,70,29.95,29.88,5,0,5,0.00
2013-8-7,87.0,77.1,70.5,76.6,72.7,69.3,97,87,68,29.93,29.85,8,0,8,0.01
2013-8-8,89.1,76.8,69.8,76.6,72.6,68.3,96,88,64,29.95,29.85,6,0,6,0.08
2013-8-9,86.5,76.5,71.2,76.7,72.6,69.7,96,88,68,30.01,29.90,8,0,8,0.11
2013-8-10,84.8,74.8,69.8,75.1,71.6,68.6,97,90,69,30.09,30.00,4,0,4,0.30
2013-8-11,86.6,77.2,69.4,74.1,70.7,67.7,97,82,59,30.08,30.01,10,0,10,0.00
2013-8-12,85.8,72.6,65.8,75.5,69.5,64.9,97,91,70,30.07,29.88,17,0,17,0.82
2013-8-13,78.6,71.4,65.4,70.7,66.6,54.9,98,86,68,30.03,29.87,16,2,16,0.00
2013-8-14,72.9,61.0,53.4,55.6,52.3,49.8,88,74,50,30.14,30.03,13,2,13,0.00
2013-8-15,75.5,61.9,50.2,56.6,52.9,48.6,95,75,48,30.14,30.04,12,1,12,0.00
2013-8-16,79.5,67.0,54.1,63.3,58.6,52.7,96,76,55,30.11,30.05,10,1,10,0.00
2013-8-17,81.0,70.6,63.0,67.8,62.3,57.5,87,75,60,30.14,30.05,10,1,10,0.00
2013-8-18,83.0,68.4,57.6,69.3,63.9,56.5,97,86,60,30.16,30.06,7,0,7,0.41
2013-8-19,86.3,73.0,61.2,70.9,66.3,60.2,98,82,55,30.12,30.02,5,0,5,0.01
2013-8-20,84.7,71.8,62.3,73.4,67.7,61.4,98,88,67,30.12,30.04,10,1,10,0.00
2013-8-21,88.7,75.3,64.1,75.2,69.8,63.2,98,85,61,30.15,30.03,8,0,8,0.01
2013-8-22,88.5,77.4,66.8,75.3,69.7,65.9,98,79,53,30.11,30.00,11,1,11,0.00
2013-8-23,86.2,75.6,66.6,73.0,68.5,64.6,97,81,51,30.09,29.99,10,1,10,0.00
2013-8-24,86.8,74.0,62.4,69.3,62.9,54.1,97,73,36,30.21,30.09,12,1,12,0.00
2013-8-25,89.8,73.3,57.0,73.5,65.8,55.8,97,79,50,30.31,30.19,7,0,7,0.00
2013-8-26,89.4,75.8,63.4,73.2,68.7,62.4,97,81,54,30.25,30.08,9,0,9,0.00
2013-8-27,90.3,77.4,67.7,76.6,71.5,66.8,97,83,61,30.11,29.98,14,1,14,0.00
2013-8-28,92.0,79.6,68.5,73.8,70.0,66.6,97,75,45,30.01,29.93,16,1,16,0.00
2013-8-29,91.1,80.0,69.8,76.2,70.6,67.3,93,75,48,29.99,29.91,10,1,10,0.00
2013-8-30,92.5,79.6,66.5,76.7,71.3,65.3,96,78,52,29.95,29.83,14,1,14,0.00
2013-8-31,92.8,79.4,67.6,78.6,72.6,66.0,96,81,56,29.88,29.73,23,1,23,2.34
2013-9-1,85.4,74.2,67.1,75.3,69.8,66.0,98,87,65,29.89,29.71,14,1,14,1.62
2013-9-2,86.5,75.7,68.9,75.9,71.4,68.0,98,87,70,29.88,29.79,8,0,8,0.00
2013-9-3,78.8,69.9,60.5,68.5,62.4,57.5,97,78,57,30.05,29.85,13,2,13,0.01
2013-9-4,80.5,66.4,53.2,64.0,58.9,52.4,97,79,54,30.14,30.04,8,1,8,0.00
2013-9-5,82.8,68.9,56.4,65.8,61.5,55.6,98,80,51,30.19,30.11,9,1,9,0.00
2013-9-6,85.3,71.1,60.6,68.5,64.0,59.5,97,80,52,30.18,30.06,6,1,7,0.01
2013-9-7,87.3,73.3,59.4,71.2,65.9,58.5,97,80,53,30.08,29.95,7,0,7,0.00
2013-9-8,87.5,74.5,66.8,73.9,68.5,65.3,96,83,54,29.98,29.92,8,0,8,0.00
2013-9-9,91.8,78.1,66.1,75.5,70.2,64.9,97,79,53,30.01,29.95,7,0,7,0.00
2013-9-10,92.3,79.1,69.4,76.9,71.9,67.6,95,80,58,30.12,30.01,10,0,10,0.00
2013-9-11,90.3,77.0,68.5,76.8,70.8,66.8,96,82,57,30.16,30.05,5,0,7,0.00
2013-9-12,82.7,69.9,64.6,73.4,67.0,63.1,97,91,63,30.05,29.89,14,1,14,0.07
2013-9-13,69.8,64.6,50.0,63.3,51.2,46.5,96,63,46,30.06,29.92,18,4,18,0.01
2013-9-14,70.6,56.8,44.9,51.4,47.5,43.6,96,74,45,30.16,30.06,12,2,12,0.00
2013-9-15,80.1,60.3,44.7,62.8,52.9,43.6,97,80,50,30.13,30.04,7,0,10,0.00
2013-9-16,70.5,64.8,59.5,64.9,61.0,57.5,94,88,78,30.21,30.07,8,1,8,0.13
2013-9-17,74.9,63.8,54.2,60.3,56.8,52.8,95,80,56,30.25,30.11,13,1,13,0.01
2013-9-18,78.5,66.6,57.0,69.5,63.0,55.1,96,89,73,30.16,30.05,7,0,8,0.02
2013-9-19,85.0,71.8,63.6,72.3,67.3,62.6,98,87,63,30.11,29.97,9,0,9,0.00
2013-9-20,85.0,72.6,65.5,74.1,68.3,64.3,97,87,63,29.99,29.80,6,0,8,1.09
2013-9-21,70.5,63.5,52.3,67.6,57.9,50.8,98,83,55,29.87,29.70,15,2,15,2.08
2013-9-22,69.0,56.9,46.2,53.5,50.1,45.7,98,80,53,29.99,29.87,16,1,16,0.01
2013-9-23,72.1,62.9,46.1,55.3,51.9,45.3,97,69,48,30.06,29.97,10,2,15,0.01
2013-9-24,79.0,64.2,52.6,66.3,57.7,49.4,93,81,58,30.03,29.85,9,1,9,0.00
2013-9-25,78.6,68.8,60.7,67.5,63.1,59.4,96,83,62,29.88,29.81,10,2,10,0.00
2013-9-26,76.8,63.8,53.2,61.0,56.5,52.4,98,80,45,30.04,29.88,9,1,9,0.00
2013-9-27,79.1,63.2,49.9,63.1,56.1,49.2,98,81,48,30.15,30.04,9,1,9,0.01
2013-9-28,81.3,71.5,51.6,65.5,60.7,50.8,98,71,51,30.16,30.05,4,0,7,0.00
2013-9-29,68.0,60.3,54.7,61.5,58.2,53.9,98,93,74,30.07,30.00,8,0,8,0.15
2013-9-30,77.1,68.6,58.7,66.1,62.5,57.6,98,82,63,30.02,29.94,3,0,7,0.01
2013-10-1,81.0,67.1,55.7,68.3,62.3,54.9,98,86,62,30.09,30.00,9,0,10,0.00
2013-10-2,78.5,69.2,61.4,72.2,66.9,60.5,98,93,77,30.10,30.03,7,0,7,0.10
2013-10-3,83.6,71.6,66.3,70.5,67.3,64.8,98,88,60,30.09,29.98,6,0,6,0.00
2013-10-4,84.7,72.5,63.1,72.3,67.1,61.9,97,84,63,30.08,30.00,8,0,8,0.01
2013-10-5,74.7,70.8,66.2,71.0,68.7,64.7,97,93,81,30.04,29.91,11,1,11,0.87
2013-10-6,69.8,61.4,52.1,68.0,60.0,47.4,97,95,87,29.91,29.78,14,1,14,1.60
2013-10-7,62.6,51.4,43.1,49.1,45.5,42.0,97,82,56,30.17,29.90,8,2,15,0.01
2013-10-8,66.7,51.6,39.2,50.1,44.9,38.4,97,80,48,30.25,30.15,15,2,15,0.00
2013-10-9,75.8,56.6,41.9,60.9,50.8,40.6,97,83,55,30.22,30.13,7,0,7,0.00
2013-10-10,73.3,53.2,46.3,57.9,49.7,45.5,97,90,54,30.18,30.06,12,0,12,0.01
2013-10-11,77.3,58.6,44.3,57.4,50.8,43.4,97,79,44,30.11,30.01,6,0,6,0.00
2013-10-12,80.3,61.9,47.0,63.0,54.5,46.2,97,80,46,30.09,30.03,7,0,7,0.00
2013-10-13,74.1,63.8,51.5,64.7,59.0,48.1,97,86,65,30.28,30.11,12,2,12,0.00
2013-10-14,70.7,56.9,46.4,58.7,50.8,42.9,95,81,62,30.30,30.15,10,1,10,0.00
2013-10-15,71.8,61.7,52.5,63.3,58.1,50.9,97,88,73,30.15,29.94,7,0,7,0.00
2013-10-16,63.7,59.1,52.0,60.5,56.6,50.4,96,92,86,29.98,29.91,8,0,8,0.08
2013-10-17,59.4,50.6,41.5,51.6,46.6,40.1,96,87,67,30.02,29.91,12,1,12,0.12
2013-10-18,66.1,49.9,37.6,53.1,44.3,36.7,97,83,52,30.09,29.97,9,0,9,0.01
2013-10-19,51.1,45.9,34.2,48.3,43.2,33.1,96,91,72,30.07,29.86,14,2,16,0.19
2013-10-20,62.0,39.7,32.9,45.9,36.2,31.6,97,89,49,30.11,30.03,8,0,8,0.01
2013-10-21,67.6,50.9,36.9,48.7,42.4,35.6,96,76,43,30.06,29.93,10,1,10,0.00
2013-10-22,57.6,47.1,33.1,47.5,37.2,29.4,96,71,40,30.08,29.83,15,1,15,0.00
2013-10-23,47.6,41.9,33.5,42.8,35.7,30.0,92,79,61,30.12,29.80,17,2,17,0.02
2013-10-24,46.7,39.0,29.1,37.0,32.0,23.4,92,77,53,30.35,30.11,18,2,18,0.00
2013-10-25,47.8,33.1,21.6,33.7,25.8,20.0,96,77,45,30.53,30.35,11,1,11,0.00
2013-10-26,56.2,38.2,24.2,38.6,31.0,22.7,95,78,48,30.36,30.03,10,1,12,0.01
2013-10-27,61.6,43.7,29.8,42.3,35.6,28.5,96,77,39,30.13,30.05,11,0,11,0.00
2013-10-28,65.0,50.2,40.5,48.0,42.1,37.9,94,76,46,30.28,30.09,8,0,8,0.00
2013-10-29,58.6,49.9,38.1,55.0,48.4,36.8,97,95,86,30.34,30.16,5,0,5,0.23
2013-10-30,74.8,62.6,55.8,65.9,59.9,54.7,97,91,73,30.17,30.02,7,0,11,0.09
2013-10-31,64.5,62.4,56.9,63.1,58.5,52.7,96,87,77,30.03,29.45,22,2,22,1.46
2013-11-1,66.9,56.6,45.6,53.4,48.2,41.6,96,75,44,29.80,29.53,14,2,15,0.00
2013-11-2,57.3,47.2,36.5,46.6,41.0,35.5,96,80,59,30.16,29.80,10,2,12,0.01
2013-11-3,55.7,42.3,31.1,40.5,35.4,29.8,96,78,49,30.35,30.15,11,1,11,0.00
2013-11-4,62.4,48.4,35.9,44.6,39.6,33.0,91,73,49,30.39,30.29,10,0,10,0.00
2013-11-5,65.0,54.6,46.7,46.4,42.6,39.9,79,65,49,30.40,30.21,9,1,9,0.00
2013-11-6,67.8,56.4,43.5,58.1,50.8,41.4,95,82,67,30.21,30.00,18,2,18,0.29
2013-11-7,49.2,40.3,31.2,41.2,32.2,26.1,96,75,41,30.33,30.11,13,2,13,0.03
2013-11-8,53.4,38.4,24.4,34.5,28.2,22.9,95,70,35,30.43,30.27,6,0,6,0.00
2013-11-9,62.1,45.0,29.0,36.2,31.0,25.8,90,61,36,30.28,30.13,20,1,20,0.00
2013-11-10,55.4,41.6,29.5,40.3,33.7,25.4,94,76,33,30.37,30.20,13,1,15,0.00
2013-11-11,64.1,45.8,26.9,43.2,29.1,19.2,94,59,18,30.33,30.14,17,1,17,0.00
2013-11-12,47.3,32.7,24.4,42.6,22.2,12.8,94,67,37,30.67,30.22,21,7,21,0.00
2013-11-13,42.2,23.5,17.0,27.4,18.2,14.9,93,82,42,30.73,30.47,8,0,8,0.00
2013-11-14,54.7,37.4,22.0,27.0,21.2,18.0,86,56,27,30.47,30.21,7,1,11,0.00
2013-11-15,53.7,43.2,29.7,45.2,32.5,20.0,94,67,49,30.21,30.11,10,0,10,0.07
2013-11-16,60.2,53.7,46.0,56.4,51.1,44.2,96,91,84,30.13,29.90,15,1,15,0.00
2013-11-17,64.7,60.5,47.2,62.4,56.2,41.4,97,87,51,29.91,29.59,15,2,15,1.20
2013-11-18,55.3,46.3,35.5,42.6,36.0,27.5,91,69,42,30.24,29.87,17,2,17,0.00
2013-11-19,44.2,34.8,24.9,30.2,27.4,21.7,92,75,54,30.35,30.24,13,2,13,0.00
2013-11-20,56.7,45.6,27.1,36.5,32.2,23.2,85,61,43,30.30,30.19,12,1,12,0.00
2013-11-21,63.9,51.6,37.9,51.6,43.8,30.7,91,75,61,30.30,30.17,13,1,13,0.02
2013-11-22,54.2,49.3,40.8,53.0,46.9,35.2,96,92,80,30.39,30.18,18,3,18,0.17
2013-11-23,41.8,35.0,24.8,35.3,24.9,10.0,85,68,29,30.58,30.37,19,6,19,0.00
2013-11-24,28.4,20.7,17.0,14.1,11.6,8.9,77,68,45,30.75,30.56,12,3,14,0.00
2013-11-25,41.8,30.9,19.8,28.5,19.3,13.1,90,64,38,30.57,30.22,10,1,10,0.00
2013-11-26,32.8,31.3,30.4,31.0,29.2,27.2,95,92,82,30.26,29.96,11,2,11,0.17
2013-11-27,32.8,25.2,13.4,27.8,18.1,9.7,85,74,62,30.39,30.00,17,4,17,0.00
2013-11-28,38.6,22.8,10.3,19.5,14.2,7.5,89,72,42,30.52,30.36,12,0,12,0.00
2013-11-29,45.0,34.1,14.3,26.7,23.5,11.9,91,66,47,30.66,30.52,7,1,7,0.00
2013-11-30,55.1,30.3,20.5,33.0,23.1,18.3,93,77,38,30.52,30.23,6,0,13,0.00
2013-12-1,52.9,45.4,36.6,38.9,33.3,28.6,83,63,53,30.24,29.97,12,1,12,0.00
2013-12-2,54.7,42.8,30.5,43.9,37.2,28.0,93,81,65,29.97,29.77,7,0,7,0.00
2013-12-3,57.2,47.8,36.1,50.4,45.0,34.5,96,90,77,29.86,29.76,10,0,10,0.00
2013-12-4,69.5,58.8,44.6,60.5,54.1,43.0,97,85,69,29.83,29.70,14,1,14,0.00
2013-12-5,64.9,46.7,31.1,61.0,43.4,28.8,94,88,81,30.16,29.79,17,3,17,0.51
2013-12-6,31.4,27.4,24.3,29.6,25.5,22.4,94,92,91,30.43,30.13,15,4,15,0.13
2013-12-7,25.8,22.2,18.9,22.7,19.5,15.9,93,89,85,30.62,30.42,8,2,8,0.00
2013-12-8,30.8,25.9,21.2,29.8,24.1,18.2,96,93,88,30.51,30.08,9,2,9,0.00
2013-12-9,30.5,26.7,19.6,29.4,24.2,17.3,96,90,84,30.29,30.09,10,1,10,0.00
2013-12-10,30.4,22.8,16.2,24.1,19.2,14.5,93,86,76,30.42,30.21,6,2,9,0.00
2013-12-11,36.6,22.1,11.7,30.0,17.8,9.6,94,84,66,30.59,30.39,15,2,15,0.17
2013-12-12,29.4,19.4,6.7,15.3,11.4,4.2,91,72,49,30.65,30.42,9,1,9,0.00
2013-12-13,41.1,29.5,17.3,29.8,20.9,12.4,91,72,48,30.43,30.14,8,0,8,0.19
2013-12-14,41.0,35.0,31.2,39.7,33.3,29.0,95,93,88,30.15,29.75,14,2,14,0.66
2013-12-15,31.1,27.8,25.3,29.0,24.1,21.7,92,86,82,30.20,29.99,15,3,15,0.00
2013-12-16,45.9,34.4,28.2,36.0,29.8,24.8,92,83,68,30.19,30.05,12,1,12,0.00
2013-12-17,39.9,32.8,22.1,34.9,28.8,20.4,93,85,75,30.27,30.04,13,2,13,0.00
2013-12-18,43.3,30.7,18.1,24.3,20.4,15.1,94,69,38,30.37,30.14,8,1,8,0.00
2013-12-19,60.2,48.3,35.9,45.9,34.7,21.6,70,59,50,30.17,30.00,10,2,12,0.00
2013-12-20,59.7,55.2,48.5,55.8,48.3,37.3,90,78,55,30.00,29.86,13,2,13,0.08
2013-12-21,66.5,61.5,57.3,61.8,58.3,55.1,96,89,85,29.87,29.51,20,2,20,0.87
2013-12-22,57.5,53.1,37.5,56.7,51.3,35.1,97,94,80,30.03,29.58,12,2,14,0.33
2013-12-23,34.4,31.6,25.1,31.0,27.4,20.1,92,84,73,30.47,30.11,13,4,14,0.02
2013-12-24,24.9,21.1,14.5,20.3,15.1,7.5,86,78,53,30.64,30.45,10,3,15,0.02
2013-12-25,41.2,19.5,10.6,22.9,12.7,7.9,90,76,41,30.51,30.29,9,0,9,0.00
2013-12-26,42.2,32.1,22.8,28.4,24.7,19.2,90,75,54,30.45,30.28,6,1,12,0.00
2013-12-27,50.1,33.2,20.6,31.8,25.1,17.6,92,74,46,30.48,30.38,9,0,9,0.00
2013-12-28,47.4,36.0,24.0,34.1,27.7,20.1,91,73,53,30.39,30.03,5,0,5,0.11
2013-12-29,47.4,36.7,26.9,41.4,33.9,23.6,95,90,78,30.14,29.89,18,2,18,0.54
2013-12-30,27.6,24.4,16.5,23.8,19.9,13.2,89,83,72,30.31,30.14,12,2,12,0.00
2013-12-31,37.8,25.7,15.2,23.1,18.7,12.3,90,75,52,30.48,30.28,11,1,11,0.00
2014-1-1,46.1,34.6,25.4,31.1,26.1,21.6,87,72,47,30.35,30.02,10,0,10,0.00
2014-1-2,39.1,26.1,14.2,34.4,22.0,8.9,95,85,65,30.38,29.85,21,4,21,0.14